Time;durP1;ratioP1;P1;durP2;ratioP2;P2;SDS_P1;SDS_P2;PMS_P1;PMS_P2;Temp;Humidity;BMP_temperature;BMP_pressure;BME280_temperature;BME280_humidity;BME280_pressure;Samples;Min_cycle;Max_cycle;Signal;HPM_P1;HPM_P2
2023/06/28 00:01:02;;;;;;;;;4.75;3.00;;;;;-143.57;100.00;65101.44;5121283;27;45364;-42
2023/06/28 00:03:27;;;;;;;;;4.25;4.25;;;;;-143.57;100.00;65101.44;5120682;27;45213;-44
2023/06/28 00:05:53;;;;;;;;;2.75;2.50;;;;;-143.57;100.00;65101.44;5121228;27;45659;-42
2023/06/28 00:08:18;;;;;;;;;2.75;2.75;;;;;-143.57;100.00;65101.44;5121028;27;45311;-44
2023/06/28 00:10:44;;;;;;;;;4.75;4.75;;;;;-143.57;100.00;65101.44;5121156;27;45404;-42
2023/06/28 00:13:09;;;;;;;;;6.50;4.75;;;;;-143.57;100.00;65101.44;5121361;27;45435;-43
2023/06/28 00:15:34;;;;;;;;;3.75;3.75;;;;;-143.57;100.00;65101.44;5120780;27;46115;-44
2023/06/28 00:18:02;;;;;;;;;6.25;3.50;;;;;-143.57;100.00;65101.44;5120990;27;45379;-42
2023/06/28 00:20:28;;;;;;;;;4.00;4.00;;;;;-143.57;100.00;65101.44;5120732;27;45462;-43
2023/06/28 00:22:54;;;;;;;;;3.25;2.25;;;;;-143.57;100.00;65101.44;5121140;27;45219;-44
2023/06/28 00:25:20;;;;;;;;;4.50;4.00;;;;;-143.57;100.00;65101.44;5120881;27;47163;-44
2023/06/28 00:27:45;;;;;;;;;3.50;3.50;;;;;-143.57;100.00;65101.44;5120634;27;45453;-44
2023/06/28 00:30:11;;;;;;;;;4.00;4.00;;;;;-143.57;100.00;65101.44;5120879;27;45398;-44
2023/06/28 00:32:37;;;;;;;;;5.50;5.25;;;;;-143.57;100.00;65101.44;5121039;27;45461;-44
2023/06/28 00:35:03;;;;;;;;;5.25;5.25;;;;;-143.57;100.00;65101.44;5120445;27;45912;-43
2023/06/28 00:37:29;;;;;;;;;4.75;4.00;;;;;-143.57;100.00;65101.44;5120449;27;45376;-43
2023/06/28 00:39:55;;;;;;;;;9.50;8.50;;;;;-143.57;100.00;65101.44;5120694;27;45449;-42
2023/06/28 00:42:20;;;;;;;;;6.00;4.25;;;;;-143.57;100.00;65101.44;5120791;27;45394;-43
2023/06/28 00:44:46;;;;;;;;;7.75;5.50;;;;;-143.57;100.00;65101.44;5120358;27;45475;-43
2023/06/28 00:47:11;;;;;;;;;4.00;3.75;;;;;-143.57;100.00;65101.44;5120536;27;45310;-45
2023/06/28 00:49:37;;;;;;;;;4.00;4.00;;;;;-143.57;100.00;65101.44;5120487;27;45436;-43
2023/06/28 00:52:05;;;;;;;;;6.00;4.25;;;;;-143.57;100.00;65101.44;5120725;27;45284;-43
2023/06/28 00:54:30;;;;;;;;;5.00;5.00;;;;;-143.57;100.00;65101.44;5120250;27;46607;-43
2023/06/28 00:56:56;;;;;;;;;5.00;3.75;;;;;-143.57;100.00;65101.44;5120307;27;45385;-43
2023/06/28 00:59:21;;;;;;;;;5.00;4.00;;;;;-143.57;100.00;65101.44;5120510;27;45213;-44
2023/06/28 01:01:50;;;;;;;;;8.25;4.50;;;;;-143.57;100.00;65101.44;5120457;27;45615;-43
2023/06/28 01:04:16;;;;;;;;;4.25;3.75;;;;;-143.57;100.00;65101.44;5120194;27;47012;-43
2023/06/28 01:06:46;;;;;;;;;6.50;4.00;;;;;-143.57;100.00;65101.44;5120219;27;45841;-42
2023/06/28 01:09:12;;;;;;;;;7.00;5.00;;;;;-143.57;100.00;65101.44;5120373;27;45291;-43
2023/06/28 01:11:39;;;;;;;;;7.25;5.00;;;;;-143.57;100.00;65101.44;5120334;27;45165;-43
2023/06/28 01:14:06;;;;;;;;;4.00;4.00;;;;;-143.57;100.00;65101.44;5120245;27;45512;-42
2023/06/28 01:16:33;;;;;;;;;5.75;5.75;;;;;-143.57;100.00;65101.44;5119884;27;45324;-42
2023/06/28 01:18:59;;;;;;;;;5.25;4.00;;;;;-143.57;100.00;65101.44;5120117;27;45432;-42
2023/06/28 01:21:28;;;;;;;;;4.00;4.00;;;;;-143.57;100.00;65101.44;5120258;27;45307;-42
2023/06/28 01:23:53;;;;;;;;;7.75;5.00;;;;;-143.57;100.00;65101.44;5119632;27;45586;-44
2023/06/28 01:26:20;;;;;;;;;7.75;4.75;;;;;-143.57;100.00;65101.44;5119960;27;45375;-43
2023/06/28 01:28:46;;;;;;;;;6.00;4.75;;;;;-143.57;100.00;65101.44;5119827;27;45410;-44
2023/06/28 01:31:12;;;;;;;;;6.50;5.00;;;;;-143.57;100.00;65101.44;5120128;27;45406;-44
2023/06/28 01:33:42;;;;;;;;;7.00;6.00;;;;;-143.57;100.00;65101.44;5119758;27;46415;-45
2023/06/28 01:36:08;;;;;;;;;5.00;5.00;;;;;-143.57;100.00;65101.44;5119624;27;45240;-42
2023/06/28 01:38:36;;;;;;;;;7.00;6.00;;;;;-143.57;100.00;65101.44;5119852;27;45363;-43
2023/06/28 01:41:01;;;;;;;;;8.50;7.50;;;;;-143.57;100.00;65101.44;5119946;27;45417;-43
2023/06/28 01:43:26;;;;;;;;;6.00;5.00;;;;;-143.57;100.00;65101.44;5119547;27;45409;-45
2023/06/28 01:45:52;;;;;;;;;6.50;4.50;;;;;-143.57;100.00;65101.44;5121806;27;45330;-44
2023/06/28 01:48:18;;;;;;;;;9.00;5.00;;;;;-143.57;100.00;65101.44;5123484;27;45415;-42
2023/06/28 01:50:45;;;;;;;;;11.00;7.00;;;;;-143.57;100.00;65101.44;5122240;27;45378;-43
2023/06/28 01:53:10;;;;;;;;;6.50;4.75;;;;;-143.57;100.00;65101.44;5119968;27;47106;-42
2023/06/28 01:55:35;;;;;;;;;8.50;6.50;;;;;-143.57;100.00;65101.44;5119489;27;48268;-42
2023/06/28 01:58:01;;;;;;;;;6.25;5.50;;;;;-143.57;100.00;65101.44;5119802;27;45196;-44
2023/06/28 02:00:26;;;;;;;;;9.25;7.00;;;;;-143.57;100.00;65101.44;5119546;27;45859;-43
2023/06/28 02:02:52;;;;;;;;;8.00;5.00;;;;;-143.57;100.00;65101.44;5119265;27;46283;-44
2023/06/28 02:05:18;;;;;;;;;6.00;4.00;;;;;-143.57;100.00;65101.44;5119072;27;45473;-44
2023/06/28 02:07:44;;;;;;;;;7.25;5.50;;;;;-143.57;100.00;65101.44;5119307;27;45439;-43
2023/06/28 02:10:10;;;;;;;;;5.00;5.00;;;;;-143.57;100.00;65101.44;5119537;27;45322;-44
2023/06/28 02:12:35;;;;;;;;;3.50;3.25;;;;;-143.57;100.00;65101.44;5118948;27;46565;-43
2023/06/28 02:15:02;;;;;;;;;3.50;3.50;;;;;-143.57;100.00;65101.44;5118987;27;45547;-44
2023/06/28 02:17:27;;;;;;;;;5.00;5.00;;;;;-143.57;100.00;65101.44;5119299;27;45410;-44
2023/06/28 02:19:53;;;;;;;;;7.75;4.25;;;;;-143.57;100.00;65101.44;5118001;27;45443;-44
2023/06/28 02:22:19;;;;;;;;;3.00;3.00;;;;;-143.57;100.00;65101.44;5118848;27;45267;-42
2023/06/28 02:24:44;;;;;;;;;5.50;3.75;;;;;-143.57;100.00;65101.44;5100365;27;45588;-43
2023/06/28 02:27:09;;;;;;;;;7.50;4.00;;;;;-143.57;100.00;65101.44;5118634;27;45213;-43
2023/06/28 02:29:35;;;;;;;;;7.25;4.75;;;;;-143.57;100.00;65101.44;5119160;27;45388;-42
2023/06/28 02:32:03;;;;;;;;;6.75;3.75;;;;;-143.57;100.00;65101.44;5118671;27;46139;-44
2023/06/28 02:34:28;;;;;;;;;5.00;5.00;;;;;-143.57;100.00;65101.44;5118725;27;45497;-44
2023/06/28 02:36:54;;;;;;;;;7.00;5.00;;;;;-143.57;100.00;65101.44;5118740;27;45422;-43
2023/06/28 02:39:20;;;;;;;;;3.00;3.00;;;;;-143.57;100.00;65101.44;5118808;27;45442;-43
2023/06/28 02:41:45;;;;;;;;;3.25;3.00;;;;;-143.57;100.00;65101.44;5118477;27;45347;-44
2023/06/28 02:44:10;;;;;;;;;5.75;3.00;;;;;-143.57;100.00;65101.44;5118614;27;45335;-43
2023/06/28 02:46:36;;;;;;;;;6.25;6.25;;;;;-143.57;100.00;65101.44;5118784;27;45259;-42
2023/06/28 02:49:01;;;;;;;;;7.00;5.50;;;;;-143.57;100.00;65101.44;5100255;27;45512;-43
2023/06/28 02:51:26;;;;;;;;;5.25;3.50;;;;;-143.57;100.00;65101.44;5118019;27;54984;-41
2023/06/28 02:53:52;;;;;;;;;4.25;4.00;;;;;-143.57;100.00;65101.44;5118356;27;45449;-42
2023/06/28 02:56:17;;;;;;;;;6.75;4.50;;;;;-143.57;100.00;65101.44;5118726;27;45344;-41
2023/06/28 02:58:43;;;;;;;;;4.75;4.00;;;;;-143.57;100.00;65101.44;5118815;27;45351;-42
2023/06/28 03:01:09;;;;;;;;;5.00;3.50;;;;;-143.57;100.00;65101.44;5118440;27;46319;-44
2023/06/28 03:03:34;;;;;;;;;4.25;4.25;;;;;-143.57;100.00;65101.44;5118527;27;45288;-43
2023/06/28 03:06:00;;;;;;;;;3.25;3.25;;;;;-143.57;100.00;65101.44;5118579;27;45334;-43
2023/06/28 03:08:26;;;;;;;;;4.50;4.50;;;;;-143.57;100.00;65101.44;5118542;27;45420;-42
2023/06/28 03:10:51;;;;;;;;;8.25;6.50;;;;;-143.57;100.00;65101.44;5118319;27;45322;-41
2023/06/28 03:13:17;;;;;;;;;6.75;5.00;;;;;-143.57;100.00;65101.44;5118421;27;45422;-44
2023/06/28 03:15:42;;;;;;;;;6.25;5.50;;;;;-143.57;100.00;65101.44;5118393;27;45304;-42
2023/06/28 03:18:07;;;;;;;;;5.00;5.00;;;;;-143.57;100.00;65101.44;5118580;27;45390;-43
2023/06/28 03:20:33;;;;;;;;;5.00;5.00;;;;;-143.57;100.00;65101.44;5117934;27;49505;-41
2023/06/28 03:22:58;;;;;;;;;7.00;5.00;;;;;-143.57;100.00;65101.44;5118252;27;45232;-42
2023/06/28 03:25:23;;;;;;;;;8.50;5.25;;;;;-143.57;100.00;65101.44;5118142;27;45917;-42
2023/06/28 03:27:49;;;;;;;;;10.50;6.25;;;;;-143.57;100.00;65101.44;5118102;27;45335;-43
2023/06/28 03:30:15;;;;;;;;;5.25;5.25;;;;;-143.57;100.00;65101.44;5119543;27;46951;-41
2023/06/28 03:32:40;;;;;;;;;9.25;5.00;;;;;-143.57;100.00;65101.44;5125242;27;45314;-42
2023/06/28 03:35:07;;;;;;;;;7.50;5.25;;;;;-143.57;100.00;65101.44;5124696;27;45282;-45
2023/06/28 03:37:33;;;;;;;;;5.50;5.50;;;;;-143.57;100.00;65101.44;5124688;27;45489;-43
2023/06/28 03:39:59;;;;;;;;;5.25;4.00;;;;;-143.57;100.00;65101.44;5124040;27;47013;-43
2023/06/28 03:42:24;;;;;;;;;8.00;6.50;;;;;-143.57;100.00;65101.44;5121938;27;45337;-42
2023/06/28 03:44:49;;;;;;;;;4.00;4.00;;;;;-143.57;100.00;65101.44;5121601;27;45341;-42
2023/06/28 03:47:15;;;;;;;;;7.25;6.00;;;;;-143.57;100.00;65101.44;5121974;27;45369;-43
2023/06/28 03:49:40;;;;;;;;;7.50;6.00;;;;;-143.57;100.00;65101.44;5121456;27;45326;-42
2023/06/28 03:52:06;;;;;;;;;8.50;7.50;;;;;-143.57;100.00;65101.44;5121597;27;45260;-43
2023/06/28 03:54:32;;;;;;;;;8.00;7.25;;;;;-143.57;100.00;65101.44;5121659;27;45220;-43
2023/06/28 03:56:58;;;;;;;;;6.50;6.50;;;;;-143.57;100.00;65101.44;5122037;27;45600;-41
2023/06/28 03:59:23;;;;;;;;;9.50;6.25;;;;;-143.57;100.00;65101.44;5103077;27;46435;-43
2023/06/28 04:01:49;;;;;;;;;11.00;8.50;;;;;-143.57;100.00;65101.44;5121028;27;45437;-42
2023/06/28 04:04:14;;;;;;;;;9.75;9.00;;;;;-143.57;100.00;65101.44;5102971;27;45487;-42
2023/06/28 04:06:40;;;;;;;;;8.50;6.25;;;;;-143.57;100.00;65101.44;5121592;27;45458;-44
2023/06/28 04:09:05;;;;;;;;;4.00;1.00;;;;;-143.57;100.00;65101.44;5121053;27;46144;-44
2023/06/28 04:11:30;;;;;;;;;5.75;5.75;;;;;-143.57;100.00;65101.44;5121201;27;45403;-43
2023/06/28 04:13:56;;;;;;;;;12.50;9.00;;;;;-143.57;100.00;65101.44;5121073;27;45396;-43
2023/06/28 04:16:21;;;;;;;;;8.50;7.00;;;;;-143.57;100.00;65101.44;5121110;27;45394;-43
2023/06/28 04:18:46;;;;;;;;;9.50;7.25;;;;;-143.57;100.00;65101.44;5120996;27;46225;-42
2023/06/28 04:21:12;;;;;;;;;6.00;5.75;;;;;-143.57;100.00;65101.44;5120686;27;45306;-44
2023/06/28 04:23:38;;;;;;;;;8.00;8.00;;;;;-143.57;100.00;65101.44;5121024;27;45805;-42
2023/06/28 04:26:03;;;;;;;;;8.50;5.50;;;;;-143.57;100.00;65101.44;5120067;27;45314;-43
2023/06/28 04:28:29;;;;;;;;;5.50;4.50;;;;;-143.57;100.00;65101.44;5120513;27;45332;-44
2023/06/28 04:30:54;;;;;;;;;7.50;6.00;;;;;-143.57;100.00;65101.44;5120953;27;45440;-44
2023/06/28 04:33:22;;;;;;;;;5.00;4.50;;;;;-143.57;100.00;65101.44;5120800;27;45509;-42
2023/06/28 04:35:49;;;;;;;;;12.50;5.00;;;;;-143.57;100.00;65101.44;5120959;27;45212;-44
2023/06/28 04:38:15;;;;;;;;;5.25;4.00;;;;;-143.57;100.00;65101.44;5120599;27;46348;-42
2023/06/28 04:40:41;;;;;;;;;6.50;5.00;;;;;-143.57;100.00;65101.44;5101586;27;45372;-43
2023/06/28 04:43:10;;;;;;;;;5.75;5.00;;;;;-143.57;100.00;65101.44;5120135;27;45359;-43
2023/06/28 04:45:36;;;;;;;;;5.00;5.00;;;;;-143.57;100.00;65101.44;5120770;27;45315;-43
2023/06/28 04:48:05;;;;;;;;;5.75;5.75;;;;;-143.57;100.00;65101.44;5120516;27;47206;-43
2023/06/28 04:50:36;;;;;;;;;6.75;4.25;;;;;-143.57;100.00;65101.44;5120506;27;45373;-44
2023/06/28 04:53:05;;;;;;;;;5.00;5.00;;;;;-143.57;100.00;65101.44;5120354;27;45447;-44
2023/06/28 04:55:34;;;;;;;;;5.75;4.75;;;;;-143.57;100.00;65101.44;5120790;27;45401;-42
2023/06/28 04:58:04;;;;;;;;;4.50;4.50;;;;;-143.57;100.00;65101.44;5120133;27;46076;-43
2023/06/28 05:00:30;;;;;;;;;0.67;0.00;;;;;-143.57;100.00;65101.44;5120182;27;45414;-44
2023/06/28 05:02:56;;;;;;;;;5.00;5.00;;;;;-143.57;100.00;65101.44;5120440;27;45370;-43
2023/06/28 05:05:26;;;;;;;;;5.50;3.75;;;;;-143.57;100.00;65101.44;5120548;27;45314;-43
2023/06/28 05:07:55;;;;;;;;;5.50;3.25;;;;;-143.57;100.00;65101.44;5119973;27;46977;-44
2023/06/28 05:10:22;;;;;;;;;4.50;4.25;;;;;-143.57;100.00;65101.44;5119983;27;45350;-44
2023/06/28 05:12:50;;;;;;;;;6.75;2.00;;;;;-143.57;100.00;65101.44;5120359;27;45514;-43
2023/06/28 05:15:16;;;;;;;;;5.00;3.00;;;;;-143.57;100.00;65101.44;5119324;27;45561;-43
2023/06/28 05:17:42;;;;;;;;;2.25;2.00;;;;;-143.57;100.00;65101.44;5120028;27;46256;-42
2023/06/28 05:20:08;;;;;;;;;6.75;3.75;;;;;-143.57;100.00;65101.44;5119969;27;45363;-43
2023/06/28 05:22:34;;;;;;;;;3.00;2.75;;;;;-143.57;100.00;65101.44;5120186;27;45331;-44
2023/06/28 05:24:59;;;;;;;;;5.75;4.25;;;;;-143.57;100.00;65101.44;5122666;27;45450;-45
2023/06/28 05:27:24;;;;;;;;;4.00;4.00;;;;;-143.57;100.00;65101.44;5120401;27;46875;-42
2023/06/28 05:29:50;;;;;;;;;2.75;2.00;;;;;-143.57;100.00;65101.44;5120190;27;45404;-43
2023/06/28 05:32:15;;;;;;;;;2.25;2.25;;;;;-143.57;100.00;65101.44;5120105;27;45413;-42
2023/06/28 05:34:40;;;;;;;;;5.50;4.00;;;;;-143.57;100.00;65101.44;5120035;27;45355;-44
2023/06/28 05:37:06;;;;;;;;;4.50;3.50;;;;;-143.57;100.00;65101.44;5119635;27;45366;-43
2023/06/28 05:39:31;;;;;;;;;5.25;4.75;;;;;-143.57;100.00;65101.44;5119625;27;45528;-44
2023/06/28 05:41:57;;;;;;;;;7.50;4.00;;;;;-143.57;100.00;65101.44;5119587;27;45328;-43
2023/06/28 05:44:22;;;;;;;;;8.00;4.25;;;;;-143.57;100.00;65101.44;5119797;27;45347;-43
2023/06/28 05:46:48;;;;;;;;;4.75;3.75;;;;;-143.57;100.00;65101.44;5119494;27;45422;-44
2023/06/28 05:49:13;;;;;;;;;7.25;5.75;;;;;-143.57;100.00;65101.44;5119496;27;45372;-45
2023/06/28 05:51:38;;;;;;;;;4.25;4.00;;;;;-143.57;100.00;65101.44;5119460;27;45349;-46
2023/06/28 05:54:04;;;;;;;;;3.25;3.25;;;;;-143.57;100.00;65101.44;5117773;27;45236;-42
2023/06/28 05:56:29;;;;;;;;;5.00;5.00;;;;;-143.57;100.00;65101.44;5097309;27;46808;-44
2023/06/28 05:58:56;;;;;;;;;4.00;2.25;;;;;-143.57;100.00;65101.44;5098346;27;45300;-44
2023/06/28 06:01:22;;;;;;;;;3.80;3.80;;;;;-143.57;100.00;65101.44;5097152;27;45383;-42
2023/06/28 06:03:48;;;;;;;;;7.25;3.00;;;;;-143.57;100.00;65101.44;5098691;27;45374;-43
2023/06/28 06:06:13;;;;;;;;;3.75;3.00;;;;;-143.57;100.00;65101.44;5098127;27;49375;-47
2023/06/28 06:08:38;;;;;;;;;4.50;4.00;;;;;-143.57;100.00;65101.44;5097912;27;45366;-44
2023/06/28 06:11:04;;;;;;;;;9.00;4.00;;;;;-143.57;100.00;65101.44;5098347;27;45307;-47
2023/06/28 06:13:30;;;;;;;;;9.75;5.25;;;;;-143.57;100.00;65101.44;5098282;27;45377;-41
2023/06/28 06:15:55;;;;;;;;;4.75;4.00;;;;;-143.57;100.00;65101.44;5097705;27;45460;-42
2023/06/28 06:18:21;;;;;;;;;1.00;1.00;;;;;-143.57;100.00;65101.44;5098023;27;50193;-41
2023/06/28 06:20:46;;;;;;;;;8.00;4.00;;;;;-143.57;100.00;65101.44;5098172;27;45518;-44
2023/06/28 06:23:12;;;;;;;;;8.25;4.25;;;;;-143.57;100.00;65101.44;5098214;27;45395;-43
2023/06/28 06:25:37;;;;;;;;;5.25;3.00;;;;;-143.57;100.00;65101.44;5098134;27;46158;-44
2023/06/28 06:28:02;;;;;;;;;8.25;4.25;;;;;-143.57;100.00;65101.44;5097775;27;45564;-45
2023/06/28 06:30:28;;;;;;;;;4.00;3.50;;;;;-143.57;100.00;65101.44;5098755;27;45372;-42
2023/06/28 06:32:53;;;;;;;;;5.50;3.50;;;;;-143.57;100.00;65101.44;5098697;27;45322;-42
2023/06/28 06:35:19;;;;;;;;;3.00;3.00;;;;;-143.57;100.00;65101.44;5098871;27;45380;-43
2023/06/28 06:37:45;;;;;;;;;7.00;4.75;;;;;-143.57;100.00;65101.44;5098559;27;45380;-43
2023/06/28 06:40:11;;;;;;;;;6.40;4.20;;;;;-143.57;100.00;65101.44;5098249;27;45426;-43
2023/06/28 06:42:37;;;;;;;;;11.50;9.50;;;;;-143.57;100.00;65101.44;5098623;27;45364;-42
2023/06/28 06:45:02;;;;;;;;;11.50;8.50;;;;;-143.57;100.00;65101.44;5097968;27;46164;-43
2023/06/28 06:47:27;;;;;;;;;7.25;6.75;;;;;-143.57;100.00;65101.44;5097943;27;45346;-44
2023/06/28 06:49:53;;;;;;;;;7.00;5.25;;;;;-143.57;100.00;65101.44;5098231;27;45361;-43
2023/06/28 06:52:18;;;;;;;;;6.50;6.25;;;;;-143.57;100.00;65101.44;5098113;27;45327;-44
2023/06/28 06:54:43;;;;;;;;;5.00;4.75;;;;;-143.57;100.00;65101.44;5097644;27;45522;-44
2023/06/28 06:57:09;;;;;;;;;4.50;4.50;;;;;-143.57;100.00;65101.44;5097708;27;52225;-44
2023/06/28 06:59:34;;;;;;;;;7.00;5.00;;;;;-143.57;100.00;65101.44;5098092;27;45301;-42
2023/06/28 07:01:59;;;;;;;;;2.75;2.75;;;;;-143.57;100.00;65101.44;5097989;27;45581;-44
2023/06/28 07:04:25;;;;;;;;;3.75;3.75;;;;;-143.57;100.00;65101.44;5097707;27;45410;-42
2023/06/28 07:06:50;;;;;;;;;7.00;5.00;;;;;-143.57;100.00;65101.44;5097609;27;45427;-44
2023/06/28 07:09:17;;;;;;;;;5.50;5.50;;;;;-143.57;100.00;65101.44;5096238;27;45428;-43
2023/06/28 07:11:44;;;;;;;;;7.80;4.60;;;;;-143.57;100.00;65101.44;5097935;27;45523;-44
2023/06/28 07:14:09;;;;;;;;;6.00;5.00;;;;;-143.57;100.00;65101.44;5097507;27;46350;-45
2023/06/28 07:16:35;;;;;;;;;4.75;4.75;;;;;-143.57;100.00;65101.44;5097617;27;45446;-45
2023/06/28 07:19:01;;;;;;;;;8.00;5.00;;;;;-143.57;100.00;65101.44;5097663;27;45329;-43
2023/06/28 07:21:26;;;;;;;;;5.00;5.00;;;;;-143.57;100.00;65101.44;5097744;27;45218;-45
2023/06/28 07:23:53;;;;;;;;;5.75;5.00;;;;;-143.57;100.00;65101.44;5097390;27;45467;-44
2023/06/28 07:26:20;;;;;;;;;5.00;3.00;;;;;-143.57;100.00;65101.44;5097318;27;45423;-44
2023/06/28 07:28:45;;;;;;;;;7.00;4.40;;;;;-143.57;100.00;65101.44;5097336;27;45461;-45
2023/06/28 07:31:12;;;;;;;;;4.75;3.00;;;;;-143.57;100.00;65101.44;5097681;27;45254;-46
2023/06/28 07:33:37;;;;;;;;;5.80;3.60;;;;;-143.57;100.00;65101.44;5097287;27;46153;-43
2023/06/28 07:36:03;;;;;;;;;9.00;5.00;;;;;-143.57;100.00;65101.44;5097326;27;45359;-45
2023/06/28 07:38:28;;;;;;;;;8.20;4.20;;;;;-143.57;100.00;65101.44;5097435;27;45299;-43
2023/06/28 07:40:54;;;;;;;;;5.25;5.25;;;;;-143.57;100.00;65101.44;5097410;27;45400;-43
2023/06/28 07:43:20;;;;;;;;;6.25;4.50;;;;;-143.57;100.00;65101.44;5097245;27;45995;-44
2023/06/28 07:45:46;;;;;;;;;6.40;3.40;;;;;-143.57;100.00;65101.44;5097007;27;45303;-44
2023/06/28 07:48:11;;;;;;;;;4.00;4.00;;;;;-143.57;100.00;65101.44;5096946;27;45244;-44
2023/06/28 07:50:37;;;;;;;;;6.50;4.00;;;;;-143.57;100.00;65101.44;5097782;27;45351;-44
2023/06/28 07:53:03;;;;;;;;;5.75;4.00;;;;;-143.57;100.00;65101.44;5096935;27;46321;-44
2023/06/28 07:55:29;;;;;;;;;4.75;4.00;;;;;-143.57;100.00;65101.44;5096123;27;45792;-44
2023/06/28 07:57:56;;;;;;;;;4.20;4.20;;;;;-143.57;100.00;65101.44;5096914;27;45299;-44
2023/06/28 08:00:21;;;;;;;;;5.40;4.00;;;;;-143.57;100.00;65101.44;5097128;27;45506;-43
2023/06/28 08:02:48;;;;;;;;;3.25;3.25;;;;;-143.57;100.00;65101.44;5090127;27;46290;-43
2023/06/28 08:05:13;;;;;;;;;6.60;5.40;;;;;-143.57;100.00;65101.44;5076379;27;45794;-44
2023/06/28 08:07:39;;;;;;;;;2.75;2.75;;;;;-143.57;100.00;65101.44;5096550;27;45431;-44
2023/06/28 08:10:04;;;;;;;;;5.50;5.00;;;;;-143.57;100.00;65101.44;5096471;27;45399;-44
2023/06/28 08:12:30;;;;;;;;;4.00;3.00;;;;;-143.57;100.00;65101.44;5096432;27;45202;-46
2023/06/28 08:14:55;;;;;;;;;3.00;3.00;;;;;-143.57;100.00;65101.44;5096615;27;45852;-45
2023/06/28 08:17:21;;;;;;;;;5.25;4.00;;;;;-143.57;100.00;65101.44;5096867;27;45457;-42
2023/06/28 08:19:46;;;;;;;;;6.75;3.75;;;;;-143.57;100.00;65101.44;5100225;27;45309;-43
2023/06/28 08:22:12;;;;;;;;;5.75;5.25;;;;;-143.57;100.00;65101.44;5099802;27;46185;-46
2023/06/28 08:24:38;;;;;;;;;6.00;4.80;;;;;-143.57;100.00;65101.44;5099938;27;45321;-43
2023/06/28 08:27:04;;;;;;;;;8.25;4.25;;;;;-143.57;100.00;65101.44;5099862;27;45285;-43
2023/06/28 08:29:29;;;;;;;;;5.00;4.75;;;;;-143.57;100.00;65101.44;5100105;27;45433;-43
2023/06/28 08:31:54;;;;;;;;;5.75;5.00;;;;;-143.57;100.00;65101.44;5099495;27;46189;-45
2023/06/28 08:34:20;;;;;;;;;5.00;4.75;;;;;-143.57;100.00;65101.44;5099921;27;45434;-45
2023/06/28 08:36:45;;;;;;;;;6.25;4.00;;;;;-143.57;100.00;65101.44;5100104;27;45332;-43
2023/06/28 08:39:10;;;;;;;;;8.00;7.00;;;;;-143.57;100.00;65101.44;5100286;27;45509;-45
2023/06/28 08:41:37;;;;;;;;;4.75;4.50;;;;;-143.57;100.00;65101.44;5099655;27;49146;-45
2023/06/28 08:44:05;;;;;;;;;7.20;6.00;;;;;-143.57;100.00;65101.44;5099960;27;45363;-44
2023/06/28 08:46:31;;;;;;;;;10.60;5.80;;;;;-143.57;100.00;65101.44;5099840;27;45223;-43
2023/06/28 08:48:59;;;;;;;;;8.50;4.75;;;;;-143.57;100.00;65101.44;5100156;27;45412;-48
2023/06/28 08:51:25;;;;;;;;;7.80;5.00;;;;;-143.57;100.00;65101.44;5099509;27;46565;-45
2023/06/28 08:53:51;;;;;;;;;6.80;5.40;;;;;-143.57;100.00;65101.44;5099333;27;45451;-45
2023/06/28 08:56:16;;;;;;;;;8.00;5.40;;;;;-143.57;100.00;65101.44;5099386;27;45406;-46
2023/06/28 08:58:42;;;;;;;;;6.00;5.50;;;;;-143.57;100.00;65101.44;5099919;27;45427;-46
2023/06/28 09:01:12;;;;;;;;;6.50;5.00;;;;;-143.57;100.00;65101.44;5099192;27;45474;-44
2023/06/28 09:03:41;;;;;;;;;5.60;5.60;;;;;-143.57;100.00;65101.44;5099240;27;45268;-48
2023/06/28 09:06:06;;;;;;;;;5.80;5.80;;;;;-143.57;100.00;65101.44;5099072;27;45482;-46
2023/06/28 09:08:33;;;;;;;;;6.50;5.50;;;;;-143.57;100.00;65101.44;5099505;27;45332;-46
2023/06/28 09:11:02;;;;;;;;;11.60;8.60;;;;;-143.57;100.00;65101.44;5099535;27;45459;-47
2023/06/28 09:13:28;;;;;;;;;5.40;5.40;;;;;-143.57;100.00;65101.44;5099321;27;45418;-45
2023/06/28 09:15:55;;;;;;;;;6.00;6.00;;;;;-143.57;100.00;65101.44;5099450;27;45418;-44
2023/06/28 09:18:20;;;;;;;;;9.20;7.20;;;;;-143.57;100.00;65101.44;5099633;27;45398;-45
2023/06/28 09:20:54;;;;;;;;;5.50;5.00;;;;;-143.57;100.00;65101.44;5098912;27;46111;-46
2023/06/28 09:23:30;;;;;;;;;8.60;6.40;;;;;-143.57;100.00;65101.44;5099205;27;45225;-48
2023/06/28 09:25:56;;;;;;;;;8.20;6.60;;;;;-143.57;100.00;65101.44;5099604;27;45518;-47
2023/06/28 09:28:35;;;;;;;;;8.00;4.75;;;;;-143.57;100.00;65101.44;5099067;27;45502;-45
2023/06/28 09:31:01;;;;;;;;;8.40;7.60;;;;;-143.57;100.00;65101.44;5098963;27;46018;-45
2023/06/28 09:33:27;;;;;;;;;11.80;9.00;;;;;-143.57;100.00;65101.44;5098964;27;45284;-47
2023/06/28 09:36:02;;;;;;;;;9.50;5.50;;;;;-143.57;100.00;65101.44;5099070;27;45301;-44
2023/06/28 09:38:27;;;;;;;;;6.60;6.40;;;;;-143.57;100.00;65101.44;5098911;27;45561;-48
2023/06/28 09:40:58;;;;;;;;;8.25;5.25;;;;;-143.57;100.00;65101.44;5097556;27;46230;-46
2023/06/28 09:43:24;;;;;;;;;7.40;6.20;;;;;-143.57;100.00;65101.44;5098721;27;46122;-44
2023/06/28 09:45:49;;;;;;;;;9.25;6.75;;;;;-143.57;100.00;65101.44;5098911;27;45522;-45
2023/06/28 09:48:15;;;;;;;;;9.75;7.50;;;;;-143.57;100.00;65101.44;5099236;27;45411;-45
2023/06/28 09:50:40;;;;;;;;;9.00;7.75;;;;;-143.57;100.00;65101.44;5098485;27;46519;-47
2023/06/28 09:53:10;;;;;;;;;8.25;7.50;;;;;-143.57;100.00;65101.44;5098590;27;45270;-46
2023/06/28 09:55:43;;;;;;;;;12.20;10.40;;;;;-143.57;100.00;65101.44;5098956;27;45312;-45
2023/06/28 09:58:17;;;;;;;;;9.00;6.00;;;;;-143.57;100.00;65101.44;5099086;27;45425;-45
2023/06/28 10:00:44;;;;;;;;;5.20;5.00;;;;;-143.57;100.00;65101.44;5098401;27;46564;-42
2023/06/28 10:03:12;;;;;;;;;7.80;7.60;;;;;-143.57;100.00;65101.44;5098804;27;45404;-43
2023/06/28 10:05:39;;;;;;;;;9.20;7.40;;;;;-143.57;100.00;65101.44;5096401;27;45392;-46
2023/06/28 10:08:13;;;;;;;;;10.80;9.80;;;;;-143.57;100.00;65101.44;5098945;27;45307;-43
2023/06/28 10:10:40;;;;;;;;;9.00;8.20;;;;;-143.57;100.00;65101.44;5098461;27;46203;-47
2023/06/28 10:13:21;;;;;;;;;10.20;8.60;;;;;-143.57;100.00;65101.44;5098477;27;45546;-43
2023/06/28 10:16:05;;;;;;;;;9.80;9.00;;;;;-143.57;100.00;65101.44;5098424;27;45344;-44
2023/06/28 10:18:30;;;;;;;;;9.00;9.00;;;;;-143.57;100.00;65101.44;5098726;27;45498;-47
2023/06/28 10:20:57;;;;;;;;;13.25;9.00;;;;;-143.57;100.00;65101.44;5098318;27;46005;-44
2023/06/28 10:23:24;;;;;;;;;9.60;8.60;;;;;-143.57;100.00;65101.44;5098298;27;45274;-47
2023/06/28 10:25:49;;;;;;;;;9.60;9.60;;;;;-143.57;100.00;65101.44;5098376;27;45388;-48
2023/06/28 10:28:15;;;;;;;;;12.25;10.00;;;;;-143.57;100.00;65101.44;5098214;27;45418;-47
2023/06/28 10:30:42;;;;;;;;;11.50;11.25;;;;;-143.57;100.00;65101.44;5097804;27;46080;-47
2023/06/28 10:33:08;;;;;;;;;12.20;11.60;;;;;-143.57;100.00;65101.44;5098125;27;45612;-47
2023/06/28 10:35:35;;;;;;;;;12.20;10.80;;;;;-143.57;100.00;65101.44;5098393;27;45198;-44
2023/06/28 10:38:00;;;;;;;;;14.40;12.20;;;;;-143.57;100.00;65101.44;5098211;27;45273;-44
2023/06/28 10:40:26;;;;;;;;;10.50;9.25;;;;;-143.57;100.00;65101.44;5097361;27;46159;-45
2023/06/28 10:42:52;;;;;;;;;10.50;10.00;;;;;-143.57;100.00;65101.44;5097927;27;45364;-44
2023/06/28 10:45:31;;;;;;;;;14.25;11.25;;;;;-143.57;100.00;65101.44;5098246;27;45350;-43
2023/06/28 10:47:56;;;;;;;;;15.40;12.40;;;;;-143.57;100.00;65101.44;5098147;27;45206;-46
2023/06/28 10:50:22;;;;;;;;;24.25;19.50;;;;;-143.57;100.00;65101.44;5097949;27;45346;-44
2023/06/28 10:52:51;;;;;;;;;21.20;18.20;;;;;-143.57;100.00;65101.44;5097970;27;45339;-47
2023/06/28 10:55:29;;;;;;;;;18.40;13.00;;;;;-143.57;100.00;65101.44;5097937;27;45377;-47
2023/06/28 10:58:05;;;;;;;;;15.40;12.80;;;;;-143.57;100.00;65101.44;5098010;27;45352;-45
2023/06/28 11:00:37;;;;;;;;;17.40;15.40;;;;;-143.57;100.00;65101.44;5097583;27;45480;-43
2023/06/28 11:03:06;;;;;;;;;14.40;11.40;;;;;-143.57;100.00;65101.44;5097610;27;45344;-45